Time;durP1;ratioP1;P1;durP2;ratioP2;P2;SDS_P1;SDS_P2;PMS_P1;PMS_P2;Temp;Humidity;BMP_temperature;BMP_pressure;BME280_temperature;BME280_humidity;BME280_pressure;Samples;Min_cycle;Max_cycle;Signal;HPM_P1;HPM_P2
2023/08/04 00:00:37;;;;;;;3.13;0.40;;;;;;;18.51;100.00;95739.59;5079506;28;20199;-68
2023/08/04 00:03:05;;;;;;;0.45;0.32;;;;;;;18.64;100.00;95741.16;5079077;28;20719;-67
2023/08/04 00:05:32;;;;;;;0.30;0.30;;;;;;;18.37;100.00;95748.91;5079032;28;20203;-67
2023/08/04 00:07:58;;;;;;;1.20;0.35;;;;;;;18.49;100.00;95751.53;5078469;28;20211;-68
2023/08/04 00:10:25;;;;;;;0.80;0.45;;;;;;;18.40;100.00;95756.44;5078952;28;20881;-68
2023/08/04 00:12:51;;;;;;;0.80;0.40;;;;;;;18.25;100.00;95759.84;5079177;28;20234;-67
2023/08/04 00:15:18;;;;;;;0.82;0.32;;;;;;;18.23;100.00;95756.59;5078787;28;20939;-67
2023/08/04 00:17:44;;;;;;;0.30;0.30;;;;;;;18.25;100.00;95759.84;5078000;28;20245;-68
2023/08/04 00:20:12;;;;;;;2.45;0.38;;;;;;;18.37;100.00;95759.56;5079088;28;20215;-68
2023/08/04 00:22:40;;;;;;;0.60;0.50;;;;;;;18.44;100.00;95762.94;5078871;28;20230;-67
2023/08/04 00:25:07;;;;;;;0.30;0.30;;;;;;;18.53;100.00;95753.50;5078812;28;20200;-68
2023/08/04 00:27:33;;;;;;;0.20;0.20;;;;;;;18.48;100.00;95757.91;5077947;28;20226;-67
2023/08/04 00:30:01;;;;;;;0.20;0.20;;;;;;;18.52;100.00;95757.22;5079110;28;20238;-68
2023/08/04 00:32:28;;;;;;;0.63;0.40;;;;;;;18.61;100.00;95763.81;5078089;28;20223;-67
2023/08/04 00:34:54;;;;;;;0.25;0.25;;;;;;;18.41;100.00;95765.25;5078428;28;20211;-67
2023/08/04 00:37:22;;;;;;;0.77;0.45;;;;;;;18.70;100.00;95759.72;5077766;28;20215;-68
2023/08/04 00:39:49;;;;;;;0.32;0.30;;;;;;;18.58;100.00;95758.13;5078744;28;20204;-68
2023/08/04 00:42:16;;;;;;;0.30;0.30;;;;;;;18.50;100.00;95753.97;5078245;28;20238;-68
2023/08/04 00:44:42;;;;;;;4.25;0.75;;;;;;;18.56;100.00;95755.69;5078666;28;20222;-68
2023/08/04 00:47:09;;;;;;;0.65;0.43;;;;;;;18.40;100.00;95752.97;5077142;28;20637;-67
2023/08/04 00:49:36;;;;;;;0.80;0.50;;;;;;;18.51;100.00;95760.94;5078032;28;20208;-68
2023/08/04 00:52:03;;;;;;;1.75;0.30;;;;;;;18.62;100.00;95768.09;5079487;28;20223;-67
2023/08/04 00:54:31;;;;;;;0.40;0.40;;;;;;;18.65;100.00;95764.16;5078114;28;20572;-68
2023/08/04 00:56:58;;;;;;;0.47;0.40;;;;;;;18.59;100.00;95763.22;5077258;28;20223;-68
2023/08/04 00:59:26;;;;;;;2.22;1.35;;;;;;;18.45;100.00;95767.19;5077541;28;20200;-67
2023/08/04 01:01:52;;;;;;;1.60;0.30;;;;;;;18.41;100.00;95762.59;5078813;28;20230;-68
2023/08/04 01:04:20;;;;;;;1.00;0.35;;;;;;;18.41;100.00;95768.72;5078149;28;20208;-68
2023/08/04 01:06:56;;;;;;;0.40;0.30;;;;;;;18.68;100.00;95777.00;5078059;28;20199;-68
2023/08/04 01:09:31;;;;;;;1.27;0.30;;;;;;;18.56;100.00;95768.25;5077823;28;20208;-67
2023/08/04 01:12:06;;;;;;;0.28;0.28;;;;;;;18.52;100.00;95765.22;5077676;28;20219;-67
2023/08/04 01:14:35;;;;;;;0.28;0.28;;;;;;;18.35;100.00;95766.19;5077970;28;20548;-68
2023/08/04 01:17:03;;;;;;;0.35;0.35;;;;;;;18.44;100.00;95760.28;5077131;28;20658;-68
2023/08/04 01:19:30;;;;;;;0.30;0.30;;;;;;;18.41;100.00;95766.06;5077459;28;20208;-67
2023/08/04 01:21:58;;;;;;;0.40;0.40;;;;;;;18.53;100.00;95766.84;5077813;28;20216;-68
2023/08/04 01:24:26;;;;;;;0.38;0.32;;;;;;;18.28;100.00;95754.03;5077363;28;20212;-68
2023/08/04 01:26:54;;;;;;;1.17;0.30;;;;;;;18.41;100.00;95749.25;5076774;28;20203;-68
2023/08/04 01:29:22;;;;;;;0.80;0.30;;;;;;;18.40;100.00;95753.75;5077048;28;20694;-68
2023/08/04 01:31:49;;;;;;;0.63;0.50;;;;;;;18.33;100.00;95751.47;5077648;28;20251;-68
2023/08/04 01:34:16;;;;;;;2.15;0.40;;;;;;;18.36;100.00;95752.63;5077464;28;20226;-68
2023/08/04 01:36:44;;;;;;;0.75;0.50;;;;;;;18.55;100.00;95750.59;5077362;28;20265;-68
2023/08/04 01:39:12;;;;;;;0.40;0.40;;;;;;;18.50;100.00;95748.63;5076612;28;20409;-68
2023/08/04 01:41:39;;;;;;;0.20;0.20;;;;;;;18.12;100.00;95752.88;5077113;28;21320;-68
2023/08/04 01:44:05;;;;;;;2.90;0.50;;;;;;;18.11;100.00;95745.13;5077298;28;20210;-68
2023/08/04 01:46:32;;;;;;;0.30;0.30;;;;;;;18.15;100.00;95728.41;5077513;28;20199;-68
2023/08/04 01:48:58;;;;;;;0.52;0.52;;;;;;;18.15;100.00;95724.94;5076222;28;20666;-68
2023/08/04 01:51:25;;;;;;;0.63;0.40;;;;;;;18.09;100.00;95720.56;5076849;28;21089;-68
2023/08/04 01:53:52;;;;;;;0.20;0.20;;;;;;;18.13;100.00;95708.38;5077625;28;20204;-68
2023/08/04 01:56:20;;;;;;;0.40;0.40;;;;;;;18.39;100.00;95709.47;5076838;28;20210;-68
2023/08/04 01:58:46;;;;;;;1.85;0.52;;;;;;;18.14;100.00;95718.78;5075878;28;20211;-67
2023/08/04 02:01:13;;;;;;;0.47;0.35;;;;;;;18.13;100.00;95713.69;5077278;28;20219;-68
2023/08/04 02:03:39;;;;;;;0.40;0.40;;;;;;;18.09;100.00;95709.88;5077296;28;20672;-68
2023/08/04 02:06:06;;;;;;;0.40;0.30;;;;;;;18.08;100.00;95719.72;5076475;28;20204;-67
2023/08/04 02:08:32;;;;;;;0.40;0.30;;;;;;;17.96;100.00;95712.78;5076154;28;20206;-67
2023/08/04 02:10:59;;;;;;;0.38;0.32;;;;;;;17.97;100.00;95715.25;5077569;28;20199;-68
2023/08/04 02:13:27;;;;;;;0.75;0.40;;;;;;;18.16;100.00;95718.56;5076667;28;20207;-67
2023/08/04 02:15:53;;;;;;;0.40;0.40;;;;;;;17.76;100.00;95731.03;5076999;28;20234;-67
2023/08/04 02:18:20;;;;;;;0.30;0.30;;;;;;;17.84;100.00;95744.00;5075926;28;21031;-68
2023/08/04 02:20:46;;;;;;;0.40;0.30;;;;;;;17.82;100.00;95744.22;5076592;28;20821;-67
2023/08/04 02:23:13;;;;;;;0.40;0.40;;;;;;;17.78;100.00;95743.06;5076442;28;20227;-67
2023/08/04 02:25:39;;;;;;;2.83;0.50;;;;;;;17.80;100.00;95740.97;5077035;28;20204;-68
2023/08/04 02:28:06;;;;;;;0.47;0.30;;;;;;;17.73;100.00;95728.81;5075434;28;20318;-68
2023/08/04 02:30:35;;;;;;;0.30;0.30;;;;;;;18.09;100.00;95731.22;5076693;28;20209;-67
2023/08/04 02:33:02;;;;;;;0.30;0.30;;;;;;;17.88;100.00;95734.47;5076783;28;20243;-67
2023/08/04 02:35:28;;;;;;;0.40;0.40;;;;;;;17.95;100.00;95735.19;5076356;28;20204;-67
2023/08/04 02:37:55;;;;;;;0.55;0.50;;;;;;;18.02;100.00;95747.31;5073135;28;20228;-68
2023/08/04 02:40:22;;;;;;;1.33;0.88;;;;;;;18.10;100.00;95746.16;5076386;28;20243;-67
2023/08/04 02:42:48;;;;;;;4.20;0.52;;;;;;;18.08;100.00;95753.59;5076674;28;20230;-67
2023/08/04 02:45:15;;;;;;;0.43;0.30;;;;;;;18.12;100.00;95757.41;5076049;28;20668;-68
2023/08/04 02:47:43;;;;;;;1.08;0.50;;;;;;;18.37;100.00;95756.91;5075492;28;20612;-68
2023/08/04 02:50:10;;;;;;;0.47;0.40;;;;;;;18.23;100.00;95760.09;5076279;28;20727;-67
2023/08/04 02:52:36;;;;;;;0.70;0.60;;;;;;;18.21;100.00;95748.81;5076225;28;20775;-68
2023/08/04 02:55:03;;;;;;;1.52;0.50;;;;;;;18.26;100.00;95750.81;5076239;28;20204;-67
2023/08/04 02:57:31;;;;;;;1.05;0.73;;;;;;;18.20;100.00;95746.41;5075303;28;20272;-67
2023/08/04 02:59:57;;;;;;;0.73;0.40;;;;;;;18.27;100.00;95749.75;5076274;28;20214;-68
2023/08/04 03:02:24;;;;;;;1.80;0.70;;;;;;;18.17;100.00;95738.84;5075842;28;20233;-67
2023/08/04 03:04:52;;;;;;;1.83;0.50;;;;;;;18.35;100.00;95748.34;5076350;28;21055;-67
2023/08/04 03:07:19;;;;;;;0.40;0.40;;;;;;;18.20;100.00;95757.06;5075456;28;20200;-67
2023/08/04 03:09:45;;;;;;;0.50;0.40;;;;;;;18.31;100.00;95751.72;5076182;28;20214;-68
2023/08/04 03:12:12;;;;;;;1.05;0.50;;;;;;;18.36;100.00;95755.28;5076692;28;20230;-68
2023/08/04 03:14:38;;;;;;;4.28;1.00;;;;;;;18.26;100.00;95753.47;5077367;28;20207;-68
2023/08/04 03:17:05;;;;;;;3.72;0.88;;;;;;;18.40;100.00;95759.09;5079506;28;20228;-67
2023/08/04 03:19:32;;;;;;;0.40;0.40;;;;;;;18.28;100.00;95759.38;5079811;28;20203;-68
2023/08/04 03:22:00;;;;;;;0.40;0.40;;;;;;;18.53;100.00;95753.50;5080561;28;20219;-68
2023/08/04 03:24:26;;;;;;;1.38;0.65;;;;;;;18.21;100.00;95764.81;5079699;28;20208;-67
2023/08/04 03:26:53;;;;;;;1.00;0.65;;;;;;;18.27;100.00;95773.78;5079363;28;20200;-67
2023/08/04 03:29:19;;;;;;;1.05;0.45;;;;;;;18.26;100.00;95766.81;5079167;28;20204;-68
2023/08/04 03:31:46;;;;;;;0.40;0.40;;;;;;;18.18;100.00;95759.19;5079575;28;20618;-68
2023/08/04 03:34:12;;;;;;;0.40;0.40;;;;;;;18.13;100.00;95759.03;5079943;28;21113;-67
2023/08/04 03:36:39;;;;;;;0.75;0.63;;;;;;;18.30;100.00;95757.28;5079654;28;20204;-68
2023/08/04 03:39:07;;;;;;;2.40;0.30;;;;;;;18.50;100.00;95751.31;5078590;28;20204;-67
2023/08/04 03:41:34;;;;;;;1.75;0.55;;;;;;;18.22;100.00;95755.00;5079407;28;20593;-68
2023/08/04 03:44:00;;;;;;;0.95;0.68;;;;;;;18.24;100.00;95752.88;5079729;28;20644;-68
2023/08/04 03:46:27;;;;;;;1.23;0.60;;;;;;;18.29;100.00;95755.66;5079320;28;20210;-68
2023/08/04 03:48:53;;;;;;;0.30;0.30;;;;;;;18.15;100.00;95770.25;5078698;28;20195;-67
2023/08/04 03:51:20;;;;;;;0.52;0.30;;;;;;;18.30;100.00;95779.44;5079625;28;20224;-68
2023/08/04 03:53:46;;;;;;;1.35;0.52;;;;;;;18.40;100.00;95780.44;5079602;28;20232;-68
2023/08/04 03:56:14;;;;;;;3.70;0.32;;;;;;;18.57;100.00;95778.69;5079028;28;20204;-67
2023/08/04 03:58:41;;;;;;;1.05;0.43;;;;;;;18.32;100.00;95777.34;5078806;28;20220;-68
2023/08/04 04:01:08;;;;;;;0.43;0.40;;;;;;;18.25;100.00;95775.84;5078978;28;20699;-68
2023/08/04 04:03:35;;;;;;;1.58;0.70;;;;;;;18.14;100.00;95782.78;5078950;28;20208;-68
2023/08/04 04:06:02;;;;;;;1.35;0.70;;;;;;;18.17;100.00;95785.00;5079232;28;20212;-67
2023/08/04 04:08:28;;;;;;;1.02;0.50;;;;;;;18.10;100.00;95786.16;5078427;28;20210;-68
2023/08/04 04:10:55;;;;;;;0.65;0.40;;;;;;;18.16;100.00;95782.56;5078630;28;20206;-67
2023/08/04 04:13:23;;;;;;;0.65;0.60;;;;;;;18.31;100.00;95796.25;5079315;28;20212;-68
2023/08/04 04:15:50;;;;;;;0.55;0.50;;;;;;;18.07;100.00;95795.44;5079450;28;20253;-68
2023/08/04 04:18:17;;;;;;;0.65;0.47;;;;;;;18.07;100.00;95786.63;5077739;28;20219;-68
2023/08/04 04:20:43;;;;;;;0.50;0.32;;;;;;;18.13;100.00;95781.16;5078801;28;20230;-67
2023/08/04 04:23:10;;;;;;;4.15;1.05;;;;;;;18.04;100.00;95790.56;5079819;28;20779;-68
2023/08/04 04:25:36;;;;;;;4.28;0.63;;;;;;;18.12;100.00;95787.53;5077713;28;20248;-68
2023/08/04 04:28:03;;;;;;;0.50;0.40;;;;;;;18.18;100.00;95789.31;5077737;28;20210;-67
2023/08/04 04:30:31;;;;;;;2.00;0.75;;;;;;;18.43;100.00;95785.31;5079340;28;20239;-68
2023/08/04 04:32:58;;;;;;;0.82;0.80;;;;;;;18.28;100.00;95789.53;5078608;28;20254;-68
2023/08/04 04:35:24;;;;;;;2.92;0.73;;;;;;;18.27;100.00;95795.09;5078255;28;20763;-67
2023/08/04 04:37:51;;;;;;;0.50;0.50;;;;;;;18.26;100.00;95793.47;5078043;28;20572;-68
2023/08/04 04:40:17;;;;;;;1.00;0.52;;;;;;;18.32;100.00;95793.34;5078148;28;20208;-68
2023/08/04 04:42:44;;;;;;;0.63;0.40;;;;;;;18.33;100.00;95794.97;5078430;28;20586;-68
2023/08/04 04:45:11;;;;;;;2.28;0.77;;;;;;;18.41;100.00;95791.94;5078686;28;20694;-68
2023/08/04 04:47:39;;;;;;;0.45;0.45;;;;;;;18.54;100.00;95787.13;5077511;28;20209;-68
2023/08/04 04:50:07;;;;;;;0.90;0.60;;;;;;;18.43;100.00;95789.81;5078288;28;20204;-67
2023/08/04 04:52:35;;;;;;;1.65;0.75;;;;;;;18.73;100.00;95791.25;5078326;28;20250;-68
2023/08/04 04:55:02;;;;;;;2.60;1.20;;;;;;;18.65;100.00;95788.16;5078073;28;20660;-67
2023/08/04 04:57:29;;;;;;;2.28;0.95;;;;;;;18.75;100.00;95788.34;5076916;28;20227;-68
2023/08/04 04:59:56;;;;;;;2.30;0.55;;;;;;;18.54;100.00;95786.34;5078087;28;20212;-67
2023/08/04 05:02:23;;;;;;;1.35;0.50;;;;;;;18.51;100.00;95776.94;5078276;28;20661;-68
2023/08/04 05:04:52;;;;;;;1.02;0.57;;;;;;;18.72;100.00;95778.16;5077859;28;20203;-68
2023/08/04 05:07:18;;;;;;;2.15;0.73;;;;;;;18.59;100.00;95773.91;5077257;28;20574;-68
2023/08/04 05:09:45;;;;;;;0.60;0.60;;;;;;;18.64;100.00;95774.00;5078588;28;20204;-68
2023/08/04 05:12:11;;;;;;;0.50;0.40;;;;;;;18.58;100.00;95772.28;5077745;28;20223;-68
2023/08/04 05:14:38;;;;;;;0.65;0.60;;;;;;;18.67;100.00;95765.53;5077924;28;20215;-67
2023/08/04 05:17:05;;;;;;;3.22;0.40;;;;;;;18.67;100.00;95770.03;5077694;28;20203;-68
2023/08/04 05:19:31;;;;;;;0.50;0.50;;;;;;;18.46;100.00;95763.50;5077472;28;20717;-68
2023/08/04 05:21:59;;;;;;;4.05;0.60;;;;;;;18.72;100.00;95767.47;5077629;28;20228;-67
2023/08/04 05:24:26;;;;;;;0.57;0.55;;;;;;;18.62;100.00;95768.09;5077141;28;20670;-67
2023/08/04 05:26:52;;;;;;;1.13;0.55;;;;;;;18.69;100.00;95768.75;5076912;28;20211;-68
2023/08/04 05:29:19;;;;;;;2.45;0.63;;;;;;;18.71;100.00;95763.19;5077086;28;20200;-68
2023/08/04 05:31:46;;;;;;;2.30;0.80;;;;;;;18.72;100.00;95773.59;5077424;28;20231;-68
2023/08/04 05:34:12;;;;;;;0.85;0.68;;;;;;;18.71;100.00;95776.53;5077257;28;20220;-67
2023/08/04 05:36:39;;;;;;;0.70;0.43;;;;;;;18.80;100.00;95775.94;5077080;28;20208;-67
2023/08/04 05:39:07;;;;;;;0.73;0.47;;;;;;;19.00;100.00;95777.09;5076248;28;20280;-67
2023/08/04 05:41:33;;;;;;;1.63;0.98;;;;;;;18.92;100.00;95779.34;5076933;28;20224;-68
2023/08/04 05:44:00;;;;;;;0.65;0.40;;;;;;;18.95;100.00;95786.88;5077589;28;20415;-68
2023/08/04 05:46:26;;;;;;;0.93;0.70;;;;;;;19.05;100.00;95784.38;5077321;28;20214;-67
2023/08/04 05:48:53;;;;;;;0.75;0.55;;;;;;;18.92;100.00;95781.22;5076470;28;20206;-68
2023/08/04 05:51:19;;;;;;;0.75;0.57;;;;;;;19.00;100.00;95779.78;5077437;28;20240;-67
2023/08/04 05:53:46;;;;;;;0.93;0.80;;;;;;;19.13;100.00;95773.34;5077263;28;20203;-68
2023/08/04 05:56:14;;;;;;;0.43;0.40;;;;;;;19.38;100.00;95768.44;5076299;28;20203;-67
2023/08/04 05:58:40;;;;;;;0.50;0.50;;;;;;;19.35;100.00;95774.28;5076150;28;20231;-67
2023/08/04 06:01:07;;;;;;;0.63;0.60;;;;;;;19.39;100.00;95770.06;5076629;28;20196;-67
2023/08/04 06:03:33;;;;;;;0.40;0.40;;;;;;;19.47;100.00;95770.47;5075602;28;20778;-68
2023/08/04 06:06:00;;;;;;;1.00;0.50;;;;;;;19.54;100.00;95767.63;5076175;28;20454;-67
2023/08/04 06:08:26;;;;;;;0.55;0.55;;;;;;;19.79;100.00;95767.00;5076011;28;20211;-68
2023/08/04 06:10:53;;;;;;;0.40;0.40;;;;;;;19.88;100.00;95768.19;5076292;28;20208;-67
2023/08/04 06:13:21;;;;;;;0.82;0.60;;;;;;;19.71;100.00;95764.69;5076526;28;20377;-67
2023/08/04 06:15:48;;;;;;;0.43;0.43;;;;;;;19.60;100.00;95773.63;5076980;28;20207;-68
2023/08/04 06:18:14;;;;;;;0.47;0.43;;;;;;;19.96;100.00;95767.81;5074901;28;20719;-68
2023/08/04 06:20:41;;;;;;;1.63;0.50;;;;;;;19.91;100.00;95765.06;5076842;28;20207;-68
2023/08/04 06:23:07;;;;;;;0.40;0.30;;;;;;;20.09;100.00;95777.34;5076795;28;20227;-69
2023/08/04 06:25:34;;;;;;;0.40;0.40;;;;;;;19.83;100.00;95773.47;5076570;28;20680;-69
2023/08/04 06:28:00;;;;;;;0.40;0.40;;;;;;;20.14;100.00;95772.88;5076030;28;20203;-69
2023/08/04 06:30:29;;;;;;;0.40;0.32;;;;;;;20.37;100.00;95772.66;5076262;28;20207;-69
2023/08/04 06:32:55;;;;;;;0.40;0.40;;;;;;;20.18;100.00;95779.34;5074391;28;20236;-69
2023/08/04 06:35:22;;;;;;;0.30;0.22;;;;;;;20.35;100.00;95782.78;5076318;28;21162;-69
2023/08/04 06:37:49;;;;;;;0.60;0.50;;;;;;;20.27;100.00;95775.19;5075986;28;20208;-69
2023/08/04 06:40:15;;;;;;;0.40;0.40;;;;;;;20.14;100.00;95778.22;5076456;28;20204;-69
2023/08/04 06:42:42;;;;;;;0.30;0.30;;;;;;;20.08;100.00;95792.56;5075907;28;20232;-69
2023/08/04 06:45:09;;;;;;;1.73;0.43;;;;;;;20.02;100.00;95793.56;5076383;28;20631;-69
2023/08/04 06:47:37;;;;;;;3.65;0.70;;;;;;;20.16;100.00;95800.16;5074839;28;20691;-69
2023/08/04 06:50:04;;;;;;;0.20;0.20;;;;;;;19.92;100.00;95809.47;5078698;28;20693;-68
2023/08/04 06:52:31;;;;;;;0.50;0.40;;;;;;;20.01;100.00;95809.84;5079996;28;20343;-69
2023/08/04 06:54:57;;;;;;;1.02;0.55;;;;;;;19.93;100.00;95803.03;5079920;28;20758;-69
2023/08/04 06:57:24;;;;;;;0.50;0.40;;;;;;;19.93;100.00;95815.63;5079084;28;20208;-69
2023/08/04 06:59:51;;;;;;;0.35;0.35;;;;;;;20.03;100.00;95813.91;5080107;28;20223;-68
2023/08/04 07:02:18;;;;;;;0.68;0.50;;;;;;;20.33;100.00;95822.38;5079723;28;20219;-69
2023/08/04 07:04:46;;;;;;;0.60;0.40;;;;;;;20.53;100.00;95815.44;5079309;28;20202;-69
2023/08/04 07:07:12;;;;;;;0.40;0.40;;;;;;;20.46;100.00;95817.47;5077987;28;20258;-69
2023/08/04 07:09:39;;;;;;;0.65;0.50;;;;;;;20.52;100.00;95821.84;5080651;28;20690;-69
2023/08/04 07:12:06;;;;;;;1.85;0.52;;;;;;;20.80;100.00;95820.88;5079129;28;20224;-69
2023/08/04 07:14:33;;;;;;;1.55;0.45;;;;;;;20.70;100.00;95823.41;5078343;28;20199;-69
2023/08/04 07:17:00;;;;;;;0.90;0.50;;;;;;;20.75;100.00;95820.81;5078868;28;20210;-69
2023/08/04 07:19:27;;;;;;;1.38;1.02;;;;;;;20.67;100.00;95819.38;5079328;28;20220;-69
2023/08/04 07:21:55;;;;;;;0.57;0.50;;;;;;;20.96;100.00;95824.31;5079440;28;20715;-69
2023/08/04 07:24:21;;;;;;;0.40;0.22;;;;;;;20.69;100.00;95819.09;5079809;28;20211;-69
2023/08/04 07:26:48;;;;;;;0.50;0.50;;;;;;;20.89;100.00;95823.66;5079939;28;20200;-69
2023/08/04 07:29:14;;;;;;;0.77;0.40;;;;;;;20.98;100.00;95811.44;5078719;28;20598;-69
2023/08/04 07:31:41;;;;;;;1.75;0.40;;;;;;;20.97;100.00;95819.75;5079937;28;20231;-69
2023/08/04 07:34:07;;;;;;;0.73;0.40;;;;;;;21.01;100.00;95831.56;5080162;28;20203;-69
2023/08/04 07:36:34;;;;;;;0.30;0.30;;;;;;;20.93;100.00;95835.50;5079611;28;20967;-69
2023/08/04 07:39:02;;;;;;;0.40;0.40;;;;;;;21.15;100.00;95836.28;5079558;28;20227;-69
2023/08/04 07:41:29;;;;;;;0.30;0.30;;;;;;;21.17;100.00;95830.69;5079111;28;20234;-69
2023/08/04 07:43:55;;;;;;;0.60;0.30;;;;;;;21.15;100.00;95828.25;5078849;28;20224;-69
2023/08/04 07:46:24;;;;;;;5.97;0.40;;;;;;;21.40;100.00;95831.19;5078804;28;20210;-69
2023/08/04 07:48:51;;;;;;;0.35;0.30;;;;;;;21.27;100.00;95826.25;5078453;28;20237;-69
2023/08/04 07:51:18;;;;;;;1.10;0.52;;;;;;;21.38;100.00;95822.59;5079433;28;20231;-69
2023/08/04 07:53:45;;;;;;;3.50;0.52;;;;;;;21.41;100.00;95819.41;5079410;28;20214;-69
2023/08/04 07:56:13;;;;;;;1.73;1.10;;;;;;;21.81;97.98;95817.13;5079129;28;20208;-69
2023/08/04 07:58:40;;;;;;;1.02;0.50;;;;;;;21.71;94.33;95803.63;5078295;28;20227;-68
2023/08/04 08:01:06;;;;;;;0.50;0.35;;;;;;;21.85;98.66;95818.22;5077987;28;20200;-68
2023/08/04 08:03:34;;;;;;;2.20;0.55;;;;;;;21.87;95.31;95808.03;5079407;28;20565;-68
2023/08/04 08:06:01;;;;;;;0.30;0.30;;;;;;;21.78;93.84;95807.72;5078889;28;20211;-68
2023/08/04 08:08:28;;;;;;;0.45;0.45;;;;;;;21.66;93.18;95803.56;5077787;28;20269;-68
2023/08/04 08:10:54;;;;;;;0.40;0.30;;;;;;;21.88;93.10;95801.59;5078489;28;20206;-68
2023/08/04 08:13:22;;;;;;;0.30;0.30;;;;;;;22.27;93.97;95801.91;5077627;28;20690;-68
2023/08/04 08:15:49;;;;;;;0.17;0.17;;;;;;;22.01;91.32;95790.44;5077937;28;20207;-68
2023/08/04 08:18:15;;;;;;;0.20;0.20;;;;;;;22.12;92.19;95792.91;5078264;28;20211;-68
2023/08/04 08:20:43;;;;;;;0.20;0.20;;;;;;;22.20;87.21;95790.56;5079934;28;20243;-68
2023/08/04 08:23:10;;;;;;;0.30;0.20;;;;;;;22.25;87.54;95792.47;5077960;28;20786;-68
2023/08/04 08:25:37;;;;;;;5.10;0.88;;;;;;;22.15;87.05;95793.22;5078459;28;20210;-68
2023/08/04 08:28:05;;;;;;;0.30;0.30;;;;;;;22.20;88.94;95798.63;5077723;28;20204;-69
2023/08/04 08:30:33;;;;;;;0.28;0.28;;;;;;;22.45;89.68;95792.63;5078612;28;20212;-68
2023/08/04 08:32:59;;;;;;;0.52;0.20;;;;;;;22.83;89.55;95793.06;5077443;28;20509;-68
2023/08/04 08:35:26;;;;;;;0.30;0.20;;;;;;;22.98;88.78;95787.75;5077780;28;20680;-68
2023/08/04 08:37:52;;;;;;;0.13;0.13;;;;;;;22.97;83.83;95788.81;5077854;28;20204;-68
2023/08/04 08:40:19;;;;;;;0.17;0.15;;;;;;;22.84;85.56;95797.38;5077243;28;20235;-68
2023/08/04 08:42:45;;;;;;;0.30;0.20;;;;;;;22.63;85.36;95801.03;5077967;28;20220;-68
2023/08/04 08:45:12;;;;;;;0.47;0.40;;;;;;;22.41;86.08;95797.69;5078568;28;20192;-68
2023/08/04 08:47:40;;;;;;;0.30;0.30;;;;;;;22.54;88.48;95796.44;5077588;28;20196;-68
2023/08/04 08:50:07;;;;;;;0.50;0.40;;;;;;;22.72;87.68;95794.09;5078410;28;20203;-68
2023/08/04 08:52:38;;;;;;;1.50;0.50;;;;;;;23.47;88.34;95798.66;5078425;28;20395;-68
2023/08/04 08:55:06;;;;;;;0.40;0.40;;;;;;;23.55;83.80;95781.97;5078206;28;20206;-68
2023/08/04 08:57:32;;;;;;;0.45;0.32;;;;;;;23.38;84.97;95794.88;5077164;28;20219;-68
2023/08/04 09:00:00;;;;;;;0.40;0.35;;;;;;;23.56;83.59;95786.28;5078370;28;20219;-68
2023/08/04 09:02:27;;;;;;;4.28;0.43;;;;;;;23.80;85.38;95803.53;5077957;28;20234;-68
2023/08/04 09:04:55;;;;;;;0.38;0.30;;;;;;;23.46;81.70;95790.84;5078092;28;20203;-68
2023/08/04 09:07:23;;;;;;;0.50;0.32;;;;;;;23.62;80.62;95784.41;5077485;28;20206;-68
2023/08/04 09:09:49;;;;;;;0.30;0.30;;;;;;;23.58;81.02;95783.34;5077795;28;20200;-68
2023/08/04 09:12:16;;;;;;;0.20;0.20;;;;;;;23.38;77.61;95789.50;5076620;28;20216;-68
2023/08/04 09:14:51;;;;;;;0.20;0.20;;;;;;;23.69;79.47;95785.78;5077954;28;20206;-69
2023/08/04 09:17:34;;;;;;;1.13;0.20;;;;;;;23.92;76.99;95779.88;5076898;28;20199;-68
2023/08/04 09:20:03;;;;;;;1.27;0.40;;;;;;;24.03;76.90;95778.75;5077639;28;20223;-68
2023/08/04 09:22:31;;;;;;;1.00;0.40;;;;;;;23.97;75.75;95779.88;5078096;28;20227;-68
2023/08/04 09:25:03;;;;;;;0.50;0.40;;;;;;;24.32;71.42;95774.41;5076583;28;20222;-68
2023/08/04 09:27:33;;;;;;;0.20;0.20;;;;;;;24.42;71.05;95777.91;5076493;28;20199;-68
2023/08/04 09:30:01;;;;;;;0.93;0.60;;;;;;;24.56;75.12;95775.47;5078149;28;20269;-68
2023/08/04 09:32:28;;;;;;;0.60;0.30;;;;;;;24.12;74.74;95785.22;5077561;28;20242;-68
2023/08/04 09:35:04;;;;;;;0.32;0.32;;;;;;;24.94;68.80;95780.97;5077384;28;20219;-68
2023/08/04 09:37:32;;;;;;;1.50;0.40;;;;;;;24.74;68.74;95784.53;5076707;28;20203;-68
2023/08/04 09:39:59;;;;;;;1.55;0.40;;;;;;;25.27;68.85;95781.09;5077380;28;20215;-68
2023/08/04 09:42:26;;;;;;;0.30;0.30;;;;;;;25.27;69.10;95778.41;5076891;28;20223;-68
2023/08/04 09:44:53;;;;;;;0.20;0.20;;;;;;;24.87;66.67;95769.66;5077762;28;20204;-69
2023/08/04 09:47:25;;;;;;;0.70;0.25;;;;;;;24.91;64.88;95760.78;5076688;28;20207;-68
2023/08/04 09:49:52;;;;;;;0.13;0.13;;;;;;;24.46;70.82;95756.63;5077122;28;20346;-68
2023/08/04 09:52:27;;;;;;;1.98;0.40;;;;;;;24.85;70.21;95743.00;5076699;28;20343;-69
2023/08/04 09:54:55;;;;;;;0.28;0.20;;;;;;;24.36;68.96;95737.78;5077392;28;20282;-69
2023/08/04 09:57:23;;;;;;;0.20;0.20;;;;;;;23.94;73.85;95740.00;5076529;28;20199;-68
2023/08/04 09:59:49;;;;;;;0.20;0.20;;;;;;;23.72;71.24;95739.50;5076729;28;20281;-68
2023/08/04 10:02:18;;;;;;;0.50;0.40;;;;;;;24.01;73.17;95745.94;5077097;28;20238;-68
2023/08/04 10:04:48;;;;;;;1.85;0.30;;;;;;;24.25;73.66;95746.94;5077054;28;20192;-68
2023/08/04 10:07:16;;;;;;;0.90;0.32;;;;;;;24.09;77.25;95742.69;5075837;28;20676;-69
2023/08/04 10:09:44;;;;;;;4.38;0.30;;;;;;;23.99;74.05;95743.53;5077146;28;20195;-68
2023/08/04 10:12:12;;;;;;;1.85;0.95;;;;;;;24.19;70.63;95748.84;5077023;28;20215;-68
2023/08/04 10:14:38;;;;;;;0.30;0.30;;;;;;;24.20;69.51;95749.69;5076829;28;20228;-68
2023/08/04 10:17:06;;;;;;;0.20;0.20;;;;;;;24.52;69.19;95747.47;5076427;28;20206;-68
2023/08/04 10:19:34;;;;;;;0.32;0.20;;;;;;;24.49;65.12;95756.09;5076655;28;20223;-68
2023/08/04 10:22:05;;;;;;;0.30;0.20;;;;;;;25.07;69.39;95743.44;5076343;28;20226;-68
2023/08/04 10:24:35;;;;;;;0.20;0.20;;;;;;;25.59;65.63;95746.34;5076154;28;20203;-68
2023/08/04 10:27:12;;;;;;;3.88;1.08;;;;;;;25.17;62.97;95751.50;5076360;28;20200;-68
2023/08/04 10:29:40;;;;;;;0.35;0.32;;;;;;;24.95;64.03;95759.13;5076384;28;20199;-68
2023/08/04 10:32:08;;;;;;;0.30;0.25;;;;;;;25.78;65.48;95763.50;5076710;28;20232;-68
2023/08/04 10:34:38;;;;;;;0.30;0.30;;;;;;;25.48;62.19;95758.28;5077188;28;20364;-68
2023/08/04 10:37:09;;;;;;;0.40;0.30;;;;;;;25.13;61.06;95761.22;5075745;28;20203;-69
2023/08/04 10:39:38;;;;;;;0.28;0.28;;;;;;;24.92;63.91;95764.25;5076714;28;20220;-69
2023/08/04 10:42:14;;;;;;;0.20;0.20;;;;;;;25.25;65.22;95757.09;5077600;28;20227;-69
2023/08/04 10:44:52;;;;;;;0.20;0.20;;;;;;;26.06;64.22;95756.22;5076013;28;20199;-69
2023/08/04 10:47:33;;;;;;;0.30;0.30;;;;;;;26.01;65.15;95767.06;5075400;28;20203;-69
2023/08/04 10:50:01;;;;;;;0.20;0.20;;;;;;;25.52;64.58;95764.75;5076449;28;21316;-69
2023/08/04 10:52:28;;;;;;;0.20;0.20;;;;;;;25.39;65.06;95765.38;5075785;28;20223;-69
2023/08/04 10:54:54;;;;;;;0.35;0.35;;;;;;;25.54;62.50;95762.56;5076566;28;20203;-69
2023/08/04 10:57:24;;;;;;;0.20;0.20;;;;;;;25.69;63.89;95770.53;5075276;28;20200;-69
2023/08/04 10:59:51;;;;;;;0.22;0.22;;;;;;;25.21;63.04;95776.81;5074653;28;20229;-69
2023/08/04 11:02:18;;;;;;;0.20;0.20;;;;;;;25.54;63.21;95771.47;5075539;28;20742;-69
2023/08/04 11:04:46;;;;;;;0.30;0.30;;;;;;;25.43;64.50;95771.81;5076173;28;20202;-69
2023/08/04 11:07:13;;;;;;;1.35;0.35;;;;;;;25.32;62.79;95794.56;5075509;28;20203;-69
2023/08/04 11:09:39;;;;;;;4.03;0.28;;;;;;;24.93;61.72;95809.81;5076027;28;20192;-68
2023/08/04 11:12:07;;;;;;;0.25;0.20;;;;;;;25.11;60.62;95830.78;5076258;28;20215;-68
2023/08/04 11:14:36;;;;;;;0.20;0.20;;;;;;;24.99;58.99;95818.72;5076196;28;21214;-68
2023/08/04 11:17:03;;;;;;;0.35;0.30;;;;;;;24.70;59.83;95820.41;5075218;28;20219;-68
2023/08/04 11:19:29;;;;;;;0.20;0.20;;;;;;;24.64;58.86;95806.16;5075482;28;20223;-69
2023/08/04 11:21:56;;;;;;;0.13;0.13;;;;;;;24.91;61.21;95812.00;5076481;28;20235;-69
2023/08/04 11:24:23;;;;;;;2.08;0.13;;;;;;;25.26;59.90;95792.97;5075404;28;20204;-68
2023/08/04 11:26:50;;;;;;;0.10;0.10;;;;;;;24.77;60.92;95784.00;5076079;28;20582;-68